sensor_id;sensor_type;location;lat;lon;timestamp;P1;durP1;ratioP1;P2;durP2;ratioP2
34296;SDS011;20564;42.902;25.336;2022-12-07T00:01:16;3.53;;;2.15;;
34296;SDS011;20564;42.902;25.336;2022-12-07T00:03:51;6.05;;;3.35;;
34296;SDS011;20564;42.902;25.336;2022-12-07T00:06:20;5.35;;;3.03;;
34296;SDS011;20564;42.902;25.336;2022-12-07T00:08:47;6.57;;;3.83;;
34296;SDS011;20564;42.902;25.336;2022-12-07T00:11:16;4.20;;;3.10;;
34296;SDS011;20564;42.902;25.336;2022-12-07T00:13:44;8.02;;;3.80;;
34296;SDS011;20564;42.902;25.336;2022-12-07T00:16:15;6.55;;;3.42;;
34296;SDS011;20564;42.902;25.336;2022-12-07T00:18:44;6.68;;;3.08;;
34296;SDS011;20564;42.902;25.336;2022-12-07T00:21:13;7.03;;;3.95;;
34296;SDS011;20564;42.902;25.336;2022-12-07T00:23:43;6.25;;;2.50;;
34296;SDS011;20564;42.902;25.336;2022-12-07T00:26:13;9.90;;;4.05;;
34296;SDS011;20564;42.902;25.336;2022-12-07T00:28:47;4.55;;;2.95;;
34296;SDS011;20564;42.902;25.336;2022-12-07T00:31:15;8.00;;;4.28;;
34296;SDS011;20564;42.902;25.336;2022-12-07T00:33:44;5.15;;;2.80;;
34296;SDS011;20564;42.902;25.336;2022-12-07T00:36:13;5.65;;;2.72;;
34296;SDS011;20564;42.902;25.336;2022-12-07T00:38:42;9.55;;;2.72;;
34296;SDS011;20564;42.902;25.336;2022-12-07T00:41:17;3.10;;;1.92;;
34296;SDS011;20564;42.902;25.336;2022-12-07T00:43:47;4.17;;;2.47;;
34296;SDS011;20564;42.902;25.336;2022-12-07T00:46:14;4.05;;;2.45;;
34296;SDS011;20564;42.902;25.336;2022-12-07T00:48:43;3.90;;;2.15;;
34296;SDS011;20564;42.902;25.336;2022-12-07T00:51:11;6.85;;;2.67;;
34296;SDS011;20564;42.902;25.336;2022-12-07T00:53:40;3.30;;;2.50;;
34296;SDS011;20564;42.902;25.336;2022-12-07T00:56:11;4.82;;;2.67;;
34296;SDS011;20564;42.902;25.336;2022-12-07T00:58:40;4.72;;;2.15;;
34296;SDS011;20564;42.902;25.336;2022-12-07T01:01:07;0.63;;;0.63;;
34296;SDS011;20564;42.902;25.336;2022-12-07T01:03:36;5.38;;;2.28;;
34296;SDS011;20564;42.902;25.336;2022-12-07T01:06:03;0.95;;;0.80;;
34296;SDS011;20564;42.902;25.336;2022-12-07T01:11:03;1.85;;;1.33;;
34296;SDS011;20564;42.902;25.336;2022-12-07T01:13:32;5.55;;;2.63;;
34296;SDS011;20564;42.902;25.336;2022-12-07T01:16:03;2.20;;;1.17;;
34296;SDS011;20564;42.902;25.336;2022-12-07T01:18:33;2.08;;;1.40;;
34296;SDS011;20564;42.902;25.336;2022-12-07T01:21:05;3.67;;;1.95;;
34296;SDS011;20564;42.902;25.336;2022-12-07T01:23:37;3.63;;;1.65;;
34296;SDS011;20564;42.902;25.336;2022-12-07T01:26:12;1.45;;;1.00;;
34296;SDS011;20564;42.902;25.336;2022-12-07T01:28:41;2.92;;;1.90;;
34296;SDS011;20564;42.902;25.336;2022-12-07T01:31:11;2.03;;;1.42;;
34296;SDS011;20564;42.902;25.336;2022-12-07T01:33:42;2.80;;;2.13;;
34296;SDS011;20564;42.902;25.336;2022-12-07T01:38:46;2.75;;;1.52;;
34296;SDS011;20564;42.902;25.336;2022-12-07T01:41:14;2.53;;;1.73;;
34296;SDS011;20564;42.902;25.336;2022-12-07T01:46:46;3.30;;;1.55;;
34296;SDS011;20564;42.902;25.336;2022-12-07T01:49:26;2.55;;;1.55;;
34296;SDS011;20564;42.902;25.336;2022-12-07T01:54:46;2.92;;;1.92;;
34296;SDS011;20564;42.902;25.336;2022-12-07T01:57:16;2.47;;;1.42;;
34296;SDS011;20564;42.902;25.336;2022-12-07T02:02:23;2.00;;;1.50;;
34296;SDS011;20564;42.902;25.336;2022-12-07T02:04:59;3.17;;;1.85;;
34296;SDS011;20564;42.902;25.336;2022-12-07T02:07:28;4.43;;;2.20;;
34296;SDS011;20564;42.902;25.336;2022-12-07T02:09:56;5.80;;;1.55;;
34296;SDS011;20564;42.902;25.336;2022-12-07T02:12:24;3.38;;;1.02;;
34296;SDS011;20564;42.902;25.336;2022-12-07T02:14:52;2.30;;;1.60;;
34296;SDS011;20564;42.902;25.336;2022-12-07T02:17:28;5.47;;;2.33;;
34296;SDS011;20564;42.902;25.336;2022-12-07T02:25:21;3.55;;;1.88;;
34296;SDS011;20564;42.902;25.336;2022-12-07T02:30:23;2.70;;;1.48;;
34296;SDS011;20564;42.902;25.336;2022-12-07T02:35:33;1.35;;;1.15;;
34296;SDS011;20564;42.902;25.336;2022-12-07T02:40:44;3.78;;;2.20;;
34296;SDS011;20564;42.902;25.336;2022-12-07T02:46:01;1.08;;;0.88;;
34296;SDS011;20564;42.902;25.336;2022-12-07T02:48:34;5.05;;;1.75;;
34296;SDS011;20564;42.902;25.336;2022-12-07T02:51:03;3.95;;;2.22;;
34296;SDS011;20564;42.902;25.336;2022-12-07T02:53:32;2.83;;;1.90;;
34296;SDS011;20564;42.902;25.336;2022-12-07T02:59:17;2.40;;;1.40;;
34296;SDS011;20564;42.902;25.336;2022-12-07T03:07:27;1.95;;;1.73;;
34296;SDS011;20564;42.902;25.336;2022-12-07T03:10:27;4.50;;;2.92;;
34296;SDS011;20564;42.902;25.336;2022-12-07T03:18:29;7.38;;;3.40;;
34296;SDS011;20564;42.902;25.336;2022-12-07T03:21:05;4.40;;;2.35;;
34296;SDS011;20564;42.902;25.336;2022-12-07T03:23:45;2.45;;;1.77;;
34296;SDS011;20564;42.902;25.336;2022-12-07T03:26:18;3.13;;;2.05;;
34296;SDS011;20564;42.902;25.336;2022-12-07T03:28:50;6.40;;;2.90;;
34296;SDS011;20564;42.902;25.336;2022-12-07T03:31:34;2.22;;;1.65;;
34296;SDS011;20564;42.902;25.336;2022-12-07T03:36:50;3.83;;;2.17;;
34296;SDS011;20564;42.902;25.336;2022-12-07T03:39:35;2.42;;;1.33;;
34296;SDS011;20564;42.902;25.336;2022-12-07T03:42:06;6.40;;;3.45;;
34296;SDS011;20564;42.902;25.336;2022-12-07T03:44:35;5.07;;;2.50;;
34296;SDS011;20564;42.902;25.336;2022-12-07T03:47:05;4.72;;;2.42;;
34296;SDS011;20564;42.902;25.336;2022-12-07T03:52:14;4.50;;;2.63;;
34296;SDS011;20564;42.902;25.336;2022-12-07T03:54:52;6.65;;;2.80;;
34296;SDS011;20564;42.902;25.336;2022-12-07T03:57:27;3.97;;;2.22;;
34296;SDS011;20564;42.902;25.336;2022-12-07T03:59:56;1.70;;;1.33;;
34296;SDS011;20564;42.902;25.336;2022-12-07T04:02:25;2.42;;;1.75;;
34296;SDS011;20564;42.902;25.336;2022-12-07T04:04:54;5.38;;;2.58;;
34296;SDS011;20564;42.902;25.336;2022-12-07T04:07:23;3.50;;;1.88;;
34296;SDS011;20564;42.902;25.336;2022-12-07T04:09:50;3.90;;;2.42;;
34296;SDS011;20564;42.902;25.336;2022-12-07T04:12:17;3.83;;;2.43;;
34296;SDS011;20564;42.902;25.336;2022-12-07T04:14:44;3.10;;;1.80;;
34296;SDS011;20564;42.902;25.336;2022-12-07T04:17:11;3.17;;;1.98;;
34296;SDS011;20564;42.902;25.336;2022-12-07T04:19:39;3.03;;;1.38;;
34296;SDS011;20564;42.902;25.336;2022-12-07T04:22:06;4.13;;;2.72;;
34296;SDS011;20564;42.902;25.336;2022-12-07T04:24:34;4.45;;;2.50;;
34296;SDS011;20564;42.902;25.336;2022-12-07T04:27:01;2.83;;;1.67;;
34296;SDS011;20564;42.902;25.336;2022-12-07T04:29:29;4.32;;;1.85;;
34296;SDS011;20564;42.902;25.336;2022-12-07T04:31:56;5.50;;;3.22;;
34296;SDS011;20564;42.902;25.336;2022-12-07T04:34:23;5.70;;;3.40;;
34296;SDS011;20564;42.902;25.336;2022-12-07T04:36:50;4.63;;;3.08;;
34296;SDS011;20564;42.902;25.336;2022-12-07T04:39:22;4.90;;;2.78;;
34296;SDS011;20564;42.902;25.336;2022-12-07T04:41:51;5.65;;;3.50;;
34296;SDS011;20564;42.902;25.336;2022-12-07T04:44:20;3.88;;;2.53;;
34296;SDS011;20564;42.902;25.336;2022-12-07T04:46:48;5.15;;;3.03;;
34296;SDS011;20564;42.902;25.336;2022-12-07T04:49:15;8.38;;;4.00;;
34296;SDS011;20564;42.902;25.336;2022-12-07T04:54:11;4.03;;;2.75;;
34296;SDS011;20564;42.902;25.336;2022-12-07T04:59:06;3.97;;;2.00;;
34296;SDS011;20564;42.902;25.336;2022-12-07T05:01:34;4.43;;;2.35;;
34296;SDS011;20564;42.902;25.336;2022-12-07T05:04:01;5.55;;;3.05;;
34296;SDS011;20564;42.902;25.336;2022-12-07T05:06:29;3.45;;;1.80;;
34296;SDS011;20564;42.902;25.336;2022-12-07T05:08:56;3.20;;;2.50;;
34296;SDS011;20564;42.902;25.336;2022-12-07T05:11:23;5.27;;;3.17;;
34296;SDS011;20564;42.902;25.336;2022-12-07T05:14:10;7.68;;;2.88;;
34296;SDS011;20564;42.902;25.336;2022-12-07T05:16:40;2.70;;;2.05;;
34296;SDS011;20564;42.902;25.336;2022-12-07T05:19:08;3.85;;;2.13;;
34296;SDS011;20564;42.902;25.336;2022-12-07T05:21:36;6.78;;;3.17;;
34296;SDS011;20564;42.902;25.336;2022-12-07T05:24:05;3.70;;;2.33;;
34296;SDS011;20564;42.902;25.336;2022-12-07T05:26:33;7.45;;;3.83;;
34296;SDS011;20564;42.902;25.336;2022-12-07T05:29:01;4.20;;;2.85;;
34296;SDS011;20564;42.902;25.336;2022-12-07T05:31:28;3.07;;;1.93;;
34296;SDS011;20564;42.902;25.336;2022-12-07T05:33:55;4.82;;;2.60;;
34296;SDS011;20564;42.902;25.336;2022-12-07T05:36:22;5.03;;;2.58;;
34296;SDS011;20564;42.902;25.336;2022-12-07T05:38:50;5.18;;;2.97;;
34296;SDS011;20564;42.902;25.336;2022-12-07T05:41:18;3.07;;;2.23;;
34296;SDS011;20564;42.902;25.336;2022-12-07T05:44:04;7.75;;;3.45;;
34296;SDS011;20564;42.902;25.336;2022-12-07T05:46:31;5.90;;;3.67;;
34296;SDS011;20564;42.902;25.336;2022-12-07T05:48:59;4.80;;;2.83;;
34296;SDS011;20564;42.902;25.336;2022-12-07T05:51:26;3.83;;;2.22;;
34296;SDS011;20564;42.902;25.336;2022-12-07T05:53:53;7.60;;;3.10;;
34296;SDS011;20564;42.902;25.336;2022-12-07T05:56:21;5.18;;;3.13;;
34296;SDS011;20564;42.902;25.336;2022-12-07T05:58:48;5.45;;;1.73;;
34296;SDS011;20564;42.902;25.336;2022-12-07T06:01:33;8.27;;;2.45;;
34296;SDS011;20564;42.902;25.336;2022-12-07T06:04:00;3.72;;;2.35;;
34296;SDS011;20564;42.902;25.336;2022-12-07T06:06:27;7.18;;;3.85;;
34296;SDS011;20564;42.902;25.336;2022-12-07T06:08:54;6.23;;;3.17;;
34296;SDS011;20564;42.902;25.336;2022-12-07T06:11:21;4.47;;;3.10;;
34296;SDS011;20564;42.902;25.336;2022-12-07T06:14:07;5.03;;;2.80;;
34296;SDS011;20564;42.902;25.336;2022-12-07T06:16:34;3.83;;;2.03;;
34296;SDS011;20564;42.902;25.336;2022-12-07T06:19:01;6.00;;;2.93;;
34296;SDS011;20564;42.902;25.336;2022-12-07T06:21:28;3.25;;;1.80;;
34296;SDS011;20564;42.902;25.336;2022-12-07T06:23:55;5.03;;;2.77;;
34296;SDS011;20564;42.902;25.336;2022-12-07T06:26:23;3.72;;;2.75;;
34296;SDS011;20564;42.902;25.336;2022-12-07T06:28:50;5.07;;;2.63;;
34296;SDS011;20564;42.902;25.336;2022-12-07T06:31:17;4.25;;;2.78;;
34296;SDS011;20564;42.902;25.336;2022-12-07T06:33:44;5.47;;;3.40;;
34296;SDS011;20564;42.902;25.336;2022-12-07T06:36:11;9.48;;;5.13;;
34296;SDS011;20564;42.902;25.336;2022-12-07T06:38:38;7.60;;;4.55;;
34296;SDS011;20564;42.902;25.336;2022-12-07T06:41:05;11.13;;;5.07;;
34296;SDS011;20564;42.902;25.336;2022-12-07T06:43:33;6.35;;;4.63;;
34296;SDS011;20564;42.902;25.336;2022-12-07T06:46:00;6.05;;;3.65;;
34296;SDS011;20564;42.902;25.336;2022-12-07T06:48:27;7.60;;;4.17;;
34296;SDS011;20564;42.902;25.336;2022-12-07T06:50:54;6.93;;;3.47;;
34296;SDS011;20564;42.902;25.336;2022-12-07T06:53:22;3.83;;;3.28;;
34296;SDS011;20564;42.902;25.336;2022-12-07T06:55:49;9.00;;;5.15;;
34296;SDS011;20564;42.902;25.336;2022-12-07T06:58:17;8.82;;;4.22;;
34296;SDS011;20564;42.902;25.336;2022-12-07T07:00:44;4.45;;;3.25;;
34296;SDS011;20564;42.902;25.336;2022-12-07T07:03:11;14.10;;;5.70;;
34296;SDS011;20564;42.902;25.336;2022-12-07T07:05:43;7.28;;;4.63;;
34296;SDS011;20564;42.902;25.336;2022-12-07T07:08:11;7.18;;;4.07;;
34296;SDS011;20564;42.902;25.336;2022-12-07T07:10:48;7.07;;;4.32;;
34296;SDS011;20564;42.902;25.336;2022-12-07T07:13:15;5.20;;;3.63;;
34296;SDS011;20564;42.902;25.336;2022-12-07T07:15:42;9.40;;;4.75;;
34296;SDS011;20564;42.902;25.336;2022-12-07T07:18:08;8.15;;;5.40;;
34296;SDS011;20564;42.902;25.336;2022-12-07T07:23:04;10.25;;;4.70;;
34296;SDS011;20564;42.902;25.336;2022-12-07T07:27:59;31.45;;;10.98;;
34296;SDS011;20564;42.902;25.336;2022-12-07T07:30:26;12.55;;;6.70;;
34296;SDS011;20564;42.902;25.336;2022-12-07T07:35:25;8.40;;;3.85;;
34296;SDS011;20564;42.902;25.336;2022-12-07T07:40:19;10.73;;;5.47;;
34296;SDS011;20564;42.902;25.336;2022-12-07T07:42:53;18.40;;;7.20;;
34296;SDS011;20564;42.902;25.336;2022-12-07T07:45:20;10.60;;;6.88;;
34296;SDS011;20564;42.902;25.336;2022-12-07T07:47:50;16.38;;;7.50;;
34296;SDS011;20564;42.902;25.336;2022-12-07T07:50:17;12.00;;;5.50;;
34296;SDS011;20564;42.902;25.336;2022-12-07T07:55:12;8.93;;;4.78;;
34296;SDS011;20564;42.902;25.336;2022-12-07T07:57:39;5.93;;;3.27;;
34296;SDS011;20564;42.902;25.336;2022-12-07T08:00:08;7.15;;;4.55;;
34296;SDS011;20564;42.902;25.336;2022-12-07T08:02:40;8.77;;;4.72;;
34296;SDS011;20564;42.902;25.336;2022-12-07T08:05:12;10.27;;;7.38;;
34296;SDS011;20564;42.902;25.336;2022-12-07T08:07:40;4.70;;;3.38;;
34296;SDS011;20564;42.902;25.336;2022-12-07T08:10:09;9.18;;;5.82;;
34296;SDS011;20564;42.902;25.336;2022-12-07T08:12:38;13.38;;;6.13;;
34296;SDS011;20564;42.902;25.336;2022-12-07T08:15:28;8.18;;;4.97;;
34296;SDS011;20564;42.902;25.336;2022-12-07T08:17:57;9.40;;;5.07;;
34296;SDS011;20564;42.902;25.336;2022-12-07T08:20:24;9.68;;;5.28;;
34296;SDS011;20564;42.902;25.336;2022-12-07T08:22:52;10.18;;;5.15;;
34296;SDS011;20564;42.902;25.336;2022-12-07T08:25:19;11.40;;;5.75;;
34296;SDS011;20564;42.902;25.336;2022-12-07T08:27:46;8.93;;;5.60;;
34296;SDS011;20564;42.902;25.336;2022-12-07T08:30:13;9.55;;;5.80;;
34296;SDS011;20564;42.902;25.336;2022-12-07T08:32:40;10.30;;;5.97;;
34296;SDS011;20564;42.902;25.336;2022-12-07T08:35:08;6.60;;;4.57;;
34296;SDS011;20564;42.902;25.336;2022-12-07T08:37:35;8.63;;;5.35;;
34296;SDS011;20564;42.902;25.336;2022-12-07T08:40:03;8.98;;;4.93;;
34296;SDS011;20564;42.902;25.336;2022-12-07T08:42:34;8.70;;;5.13;;
34296;SDS011;20564;42.902;25.336;2022-12-07T08:45:08;11.05;;;5.22;;
34296;SDS011;20564;42.902;25.336;2022-12-07T08:47:38;8.30;;;5.50;;
34296;SDS011;20564;42.902;25.336;2022-12-07T08:50:10;15.38;;;7.28;;
34296;SDS011;20564;42.902;25.336;2022-12-07T08:52:38;12.77;;;6.97;;
34296;SDS011;20564;42.902;25.336;2022-12-07T08:55:09;10.88;;;5.93;;
34296;SDS011;20564;42.902;25.336;2022-12-07T08:57:37;12.00;;;5.18;;
34296;SDS011;20564;42.902;25.336;2022-12-07T09:00:06;9.55;;;5.13;;
34296;SDS011;20564;42.902;25.336;2022-12-07T09:02:33;9.23;;;5.45;;
34296;SDS011;20564;42.902;25.336;2022-12-07T09:05:01;8.93;;;4.35;;
34296;SDS011;20564;42.902;25.336;2022-12-07T09:07:28;8.70;;;3.55;;
34296;SDS011;20564;42.902;25.336;2022-12-07T09:09:57;7.05;;;4.43;;
34296;SDS011;20564;42.902;25.336;2022-12-07T09:12:24;7.22;;;4.90;;
34296;SDS011;20564;42.902;25.336;2022-12-07T09:14:51;8.70;;;4.67;;
34296;SDS011;20564;42.902;25.336;2022-12-07T09:17:18;9.75;;;5.32;;
34296;SDS011;20564;42.902;25.336;2022-12-07T09:19:45;9.93;;;5.20;;
34296;SDS011;20564;42.902;25.336;2022-12-07T09:22:12;7.93;;;3.37;;
34296;SDS011;20564;42.902;25.336;2022-12-07T09:24:39;9.60;;;4.23;;
34296;SDS011;20564;42.902;25.336;2022-12-07T09:27:06;6.75;;;3.47;;
34296;SDS011;20564;42.902;25.336;2022-12-07T09:29:33;10.63;;;4.03;;
34296;SDS011;20564;42.902;25.336;2022-12-07T09:32:00;6.97;;;3.83;;
34296;SDS011;20564;42.902;25.336;2022-12-07T09:34:35;5.60;;;3.10;;
34296;SDS011;20564;42.902;25.336;2022-12-07T09:37:02;12.17;;;5.10;;
34296;SDS011;20564;42.902;25.336;2022-12-07T09:39:29;8.20;;;3.63;;
34296;SDS011;20564;42.902;25.336;2022-12-07T09:41:57;10.00;;;4.82;;
34296;SDS011;20564;42.902;25.336;2022-12-07T09:44:26;10.55;;;6.00;;
34296;SDS011;20564;42.902;25.336;2022-12-07T09:46:54;16.73;;;7.80;;
34296;SDS011;20564;42.902;25.336;2022-12-07T09:49:23;11.27;;;6.80;;
34296;SDS011;20564;42.902;25.336;2022-12-07T09:54:35;11.98;;;7.95;;
34296;SDS011;20564;42.902;25.336;2022-12-07T09:57:08;11.98;;;6.20;;
34296;SDS011;20564;42.902;25.336;2022-12-07T09:59:39;11.82;;;8.02;;
34296;SDS011;20564;42.902;25.336;2022-12-07T10:05:18;14.10;;;6.43;;
34296;SDS011;20564;42.902;25.336;2022-12-07T10:07:56;11.18;;;6.55;;
34296;SDS011;20564;42.902;25.336;2022-12-07T10:10:25;10.68;;;6.75;;
34296;SDS011;20564;42.902;25.336;2022-12-07T10:13:04;10.25;;;5.28;;
34296;SDS011;20564;42.902;25.336;2022-12-07T10:18:17;10.57;;;5.82;;
34296;SDS011;20564;42.902;25.336;2022-12-07T10:23:29;11.70;;;6.95;;
34296;SDS011;20564;42.902;25.336;2022-12-07T10:25:56;13.80;;;7.32;;
34296;SDS011;20564;42.902;25.336;2022-12-07T10:28:27;11.95;;;6.82;;
34296;SDS011;20564;42.902;25.336;2022-12-07T10:31:17;11.60;;;6.10;;
34296;SDS011;20564;42.902;25.336;2022-12-07T10:33:51;11.27;;;6.93;;
34296;SDS011;20564;42.902;25.336;2022-12-07T10:36:37;8.00;;;4.97;;
34296;SDS011;20564;42.902;25.336;2022-12-07T10:39:14;11.07;;;5.78;;
34296;SDS011;20564;42.902;25.336;2022-12-07T10:41:57;11.80;;;6.78;;
34296;SDS011;20564;42.902;25.336;2022-12-07T10:44:30;16.67;;;9.43;;
34296;SDS011;20564;42.902;25.336;2022-12-07T10:47:05;14.45;;;8.57;;
34296;SDS011;20564;42.902;25.336;2022-12-07T10:57:43;15.05;;;7.82;;
34296;SDS011;20564;42.902;25.336;2022-12-07T11:06:09;9.77;;;5.68;;
34296;SDS011;20564;42.902;25.336;2022-12-07T11:14:41;12.68;;;6.15;;
34296;SDS011;20564;42.902;25.336;2022-12-07T11:17:20;15.00;;;7.20;;
34296;SDS011;20564;42.902;25.336;2022-12-07T11:22:45;16.17;;;8.13;;
34296;SDS011;20564;42.902;25.336;2022-12-07T11:30:55;10.05;;;5.03;;
34296;SDS011;20564;42.902;25.336;2022-12-07T11:33:37;15.18;;;6.70;;
34296;SDS011;20564;42.902;25.336;2022-12-07T11:39:04;15.18;;;7.05;;
34296;SDS011;20564;42.902;25.336;2022-12-07T11:41:41;11.27;;;5.78;;
34296;SDS011;20564;42.902;25.336;2022-12-07T11:44:27;10.85;;;5.90;;
34296;SDS011;20564;42.902;25.336;2022-12-07T11:47:07;14.95;;;7.80;;
34296;SDS011;20564;42.902;25.336;2022-12-07T11:55:19;13.88;;;7.88;;
34296;SDS011;20564;42.902;25.336;2022-12-07T11:58:12;14.60;;;9.13;;
34296;SDS011;20564;42.902;25.336;2022-12-07T12:00:51;14.52;;;6.45;;
34296;SDS011;20564;42.902;25.336;2022-12-07T12:03:33;13.65;;;6.95;;
34296;SDS011;20564;42.902;25.336;2022-12-07T12:06:04;15.27;;;8.88;;
34296;SDS011;20564;42.902;25.336;2022-12-07T12:08:35;17.30;;;9.98;;
34296;SDS011;20564;42.902;25.336;2022-12-07T12:14:46;14.13;;;7.63;;
34296;SDS011;20564;42.902;25.336;2022-12-07T12:17:31;12.55;;;6.80;;
34296;SDS011;20564;42.902;25.336;2022-12-07T12:23:11;10.95;;;4.53;;
34296;SDS011;20564;42.902;25.336;2022-12-07T12:25:55;7.53;;;4.13;;
34296;SDS011;20564;42.902;25.336;2022-12-07T12:33:52;10.70;;;3.85;;
34296;SDS011;20564;42.902;25.336;2022-12-07T12:44:46;8.20;;;4.22;;
34296;SDS011;20564;42.902;25.336;2022-12-07T12:51:56;8.35;;;4.05;;
34296;SDS011;20564;42.902;25.336;2022-12-07T12:56:59;5.78;;;3.22;;
34296;SDS011;20564;42.902;25.336;2022-12-07T12:59:28;5.80;;;2.58;;
34296;SDS011;20564;42.902;25.336;2022-12-07T13:13:03;5.82;;;3.00;;
34296;SDS011;20564;42.902;25.336;2022-12-07T13:15:39;7.68;;;3.42;;
34296;SDS011;20564;42.902;25.336;2022-12-07T13:20:55;9.25;;;3.80;;
34296;SDS011;20564;42.902;25.336;2022-12-07T13:31:36;5.03;;;2.58;;
34296;SDS011;20564;42.902;25.336;2022-12-07T13:34:33;9.55;;;3.78;;
34296;SDS011;20564;42.902;25.336;2022-12-07T13:37:04;11.20;;;4.60;;
34296;SDS011;20564;42.902;25.336;2022-12-07T13:39:44;10.88;;;5.00;;
34296;SDS011;20564;42.902;25.336;2022-12-07T13:42:18;7.28;;;4.63;;
34296;SDS011;20564;42.902;25.336;2022-12-07T13:44:53;9.25;;;3.97;;
34296;SDS011;20564;42.902;25.336;2022-12-07T13:50:21;10.70;;;4.20;;
34296;SDS011;20564;42.902;25.336;2022-12-07T13:52:57;12.15;;;5.25;;
34296;SDS011;20564;42.902;25.336;2022-12-07T13:55:25;10.13;;;4.88;;
34296;SDS011;20564;42.902;25.336;2022-12-07T14:03:22;5.10;;;2.85;;
34296;SDS011;20564;42.902;25.336;2022-12-07T14:06:06;8.27;;;3.50;;
34296;SDS011;20564;42.902;25.336;2022-12-07T14:09:14;14.10;;;5.72;;
34296;SDS011;20564;42.902;25.336;2022-12-07T14:11:46;9.40;;;4.55;;
34296;SDS011;20564;42.902;25.336;2022-12-07T14:14:20;14.95;;;6.13;;
34296;SDS011;20564;42.902;25.336;2022-12-07T14:16:59;22.05;;;5.07;;
34296;SDS011;20564;42.902;25.336;2022-12-07T14:19:46;9.50;;;5.55;;
34296;SDS011;20564;42.902;25.336;2022-12-07T14:27:32;13.52;;;5.45;;
34296;SDS011;20564;42.902;25.336;2022-12-07T14:30:01;11.40;;;4.72;;
34296;SDS011;20564;42.902;25.336;2022-12-07T14:32:29;11.77;;;6.20;;
34296;SDS011;20564;42.902;25.336;2022-12-07T14:34:58;10.48;;;5.97;;
34296;SDS011;20564;42.902;25.336;2022-12-07T14:37:29;10.43;;;5.47;;
34296;SDS011;20564;42.902;25.336;2022-12-07T14:39:56;9.98;;;5.78;;
34296;SDS011;20564;42.902;25.336;2022-12-07T14:42:25;10.32;;;6.38;;
34296;SDS011;20564;42.902;25.336;2022-12-07T14:44:55;7.65;;;4.85;;
34296;SDS011;20564;42.902;25.336;2022-12-07T14:47:24;13.15;;;6.55;;
34296;SDS011;20564;42.902;25.336;2022-12-07T14:50:17;10.98;;;5.18;;
34296;SDS011;20564;42.902;25.336;2022-12-07T14:52:47;12.52;;;6.60;;
34296;SDS011;20564;42.902;25.336;2022-12-07T14:55:38;9.65;;;6.22;;
34296;SDS011;20564;42.902;25.336;2022-12-07T14:58:05;12.90;;;7.45;;
34296;SDS011;20564;42.902;25.336;2022-12-07T15:00:32;13.63;;;6.47;;
34296;SDS011;20564;42.902;25.336;2022-12-07T15:03:00;7.55;;;4.70;;
34296;SDS011;20564;42.902;25.336;2022-12-07T15:05:27;12.43;;;6.93;;
34296;SDS011;20564;42.902;25.336;2022-12-07T15:07:55;9.85;;;4.55;;
34296;SDS011;20564;42.902;25.336;2022-12-07T15:10:26;11.70;;;5.53;;
34296;SDS011;20564;42.902;25.336;2022-12-07T15:12:59;7.55;;;4.88;;
34296;SDS011;20564;42.902;25.336;2022-12-07T15:15:47;8.85;;;5.28;;
34296;SDS011;20564;42.902;25.336;2022-12-07T15:18:16;9.20;;;5.65;;
34296;SDS011;20564;42.902;25.336;2022-12-07T15:20:44;6.32;;;3.60;;
34296;SDS011;20564;42.902;25.336;2022-12-07T15:25:42;9.02;;;4.70;;
34296;SDS011;20564;42.902;25.336;2022-12-07T15:28:11;6.53;;;3.90;;
34296;SDS011;20564;42.902;25.336;2022-12-07T15:30:39;4.78;;;3.17;;
34296;SDS011;20564;42.902;25.336;2022-12-07T15:33:09;8.88;;;5.45;;
34296;SDS011;20564;42.902;25.336;2022-12-07T15:35:41;6.32;;;2.85;;
34296;SDS011;20564;42.902;25.336;2022-12-07T15:38:09;7.78;;;3.58;;
34296;SDS011;20564;42.902;25.336;2022-12-07T15:40:36;9.60;;;5.60;;
34296;SDS011;20564;42.902;25.336;2022-12-07T15:43:04;5.07;;;3.40;;
34296;SDS011;20564;42.902;25.336;2022-12-07T15:45:31;9.48;;;3.97;;
34296;SDS011;20564;42.902;25.336;2022-12-07T15:47:58;4.95;;;3.38;;
34296;SDS011;20564;42.902;25.336;2022-12-07T15:50:45;4.78;;;2.30;;
34296;SDS011;20564;42.902;25.336;2022-12-07T15:53:12;6.28;;;3.53;;
34296;SDS011;20564;42.902;25.336;2022-12-07T15:55:40;6.93;;;3.60;;
34296;SDS011;20564;42.902;25.336;2022-12-07T15:58:07;4.18;;;2.25;;
34296;SDS011;20564;42.902;25.336;2022-12-07T16:00:34;11.15;;;2.65;;
34296;SDS011;20564;42.902;25.336;2022-12-07T16:03:01;8.82;;;4.03;;
34296;SDS011;20564;42.902;25.336;2022-12-07T16:05:28;2.50;;;1.80;;
34296;SDS011;20564;42.902;25.336;2022-12-07T16:07:55;8.77;;;3.27;;
34296;SDS011;20564;42.902;25.336;2022-12-07T16:10:22;6.80;;;4.22;;
34296;SDS011;20564;42.902;25.336;2022-12-07T16:12:49;11.45;;;4.82;;
34296;SDS011;20564;42.902;25.336;2022-12-07T16:15:16;6.10;;;3.53;;
34296;SDS011;20564;42.902;25.336;2022-12-07T16:17:49;9.63;;;4.43;;
34296;SDS011;20564;42.902;25.336;2022-12-07T16:20:17;14.82;;;7.28;;
34296;SDS011;20564;42.902;25.336;2022-12-07T16:22:44;10.93;;;7.80;;
34296;SDS011;20564;42.902;25.336;2022-12-07T16:25:11;10.63;;;5.68;;
34296;SDS011;20564;42.902;25.336;2022-12-07T16:27:38;11.53;;;6.50;;
34296;SDS011;20564;42.902;25.336;2022-12-07T16:30:06;6.95;;;4.25;;
34296;SDS011;20564;42.902;25.336;2022-12-07T16:32:33;7.65;;;3.95;;
34296;SDS011;20564;42.902;25.336;2022-12-07T16:35:00;9.13;;;3.78;;
34296;SDS011;20564;42.902;25.336;2022-12-07T16:37:28;6.13;;;3.70;;
34296;SDS011;20564;42.902;25.336;2022-12-07T16:39:55;4.93;;;3.80;;
34296;SDS011;20564;42.902;25.336;2022-12-07T16:42:22;4.73;;;3.37;;
34296;SDS011;20564;42.902;25.336;2022-12-07T16:44:49;5.73;;;3.37;;
34296;SDS011;20564;42.902;25.336;2022-12-07T16:47:17;6.95;;;3.53;;
34296;SDS011;20564;42.902;25.336;2022-12-07T16:49:44;5.75;;;3.65;;
34296;SDS011;20564;42.902;25.336;2022-12-07T16:52:11;6.43;;;3.75;;
34296;SDS011;20564;42.902;25.336;2022-12-07T16:54:47;8.50;;;4.85;;
34296;SDS011;20564;42.902;25.336;2022-12-07T16:57:16;3.70;;;2.97;;
34296;SDS011;20564;42.902;25.336;2022-12-07T16:59:53;13.27;;;4.32;;
34296;SDS011;20564;42.902;25.336;2022-12-07T17:02:35;6.78;;;3.67;;
34296;SDS011;20564;42.902;25.336;2022-12-07T17:05:09;6.25;;;3.47;;
34296;SDS011;20564;42.902;25.336;2022-12-07T17:07:39;3.58;;;2.58;;
34296;SDS011;20564;42.902;25.336;2022-12-07T17:10:10;9.60;;;5.47;;
34296;SDS011;20564;42.902;25.336;2022-12-07T17:12:40;7.20;;;3.60;;
34296;SDS011;20564;42.902;25.336;2022-12-07T17:15:10;5.50;;;3.42;;
34296;SDS011;20564;42.902;25.336;2022-12-07T17:17:47;5.50;;;3.42;;
34296;SDS011;20564;42.902;25.336;2022-12-07T17:20:26;7.30;;;3.78;;
34296;SDS011;20564;42.902;25.336;2022-12-07T17:22:57;6.32;;;2.88;;
34296;SDS011;20564;42.902;25.336;2022-12-07T17:25:29;9.77;;;4.55;;
34296;SDS011;20564;42.902;25.336;2022-12-07T17:27:58;6.07;;;3.65;;
34296;SDS011;20564;42.902;25.336;2022-12-07T17:30:29;4.38;;;2.88;;
34296;SDS011;20564;42.902;25.336;2022-12-07T17:33:02;10.52;;;4.53;;
34296;SDS011;20564;42.902;25.336;2022-12-07T17:35:32;13.65;;;3.65;;
34296;SDS011;20564;42.902;25.336;2022-12-07T17:38:01;6.07;;;3.22;;
34296;SDS011;20564;42.902;25.336;2022-12-07T17:40:31;7.35;;;4.22;;
34296;SDS011;20564;42.902;25.336;2022-12-07T17:43:05;6.65;;;3.95;;
34296;SDS011;20564;42.902;25.336;2022-12-07T17:45:35;7.20;;;3.70;;
34296;SDS011;20564;42.902;25.336;2022-12-07T17:48:05;6.22;;;2.95;;
34296;SDS011;20564;42.902;25.336;2022-12-07T17:50:36;10.23;;;4.47;;
34296;SDS011;20564;42.902;25.336;2022-12-07T17:53:29;7.20;;;3.75;;